createdAt,value
2022-11-29T00:01:07.877Z,0.73
2022-11-29T00:05:09.648Z,0.73
2022-11-29T00:09:13.344Z,0.72
2022-11-29T00:13:14.984Z,0.81
2022-11-29T00:17:16.935Z,0.82
2022-11-29T00:21:18.805Z,0.91
2022-11-29T00:25:20.502Z,0.76
2022-11-29T00:29:22.551Z,0.86
2022-11-29T00:33:24.180Z,0.79
2022-11-29T00:37:26.132Z,0.91
2022-11-29T00:41:27.989Z,0.85
2022-11-29T00:45:29.940Z,0.81
2022-11-29T00:49:31.560Z,0.81
2022-11-29T00:53:35.231Z,0.86
2022-11-29T00:57:36.788Z,0.82
2022-11-29T01:01:38.778Z,0.85
2022-11-29T01:05:41.328Z,0.93
2022-11-29T01:09:43.316Z,0.91
2022-11-29T01:13:45.056Z,0.93
2022-11-29T01:17:47.040Z,0.91
2022-11-29T01:21:48.596Z,0.85
2022-11-29T01:26:04.978Z,0.83
2022-11-29T01:30:09.487Z,0.86
2022-11-29T01:34:11.453Z,0.82
2022-11-29T01:38:13.054Z,0.92
2022-11-29T01:42:15.142Z,0.94
2022-11-29T01:46:16.826Z,0.91
2022-11-29T01:50:19.219Z,0.82
2022-11-29T01:54:22.061Z,0.87
2022-11-29T01:58:24.070Z,0.97
2022-11-29T02:02:33.283Z,0.96
2022-11-29T02:06:36.788Z,0.92
2022-11-29T02:10:54.658Z,0.83
2022-11-29T02:15:09.897Z,0.82
2022-11-29T02:19:42.496Z,1.02
2022-11-29T02:24:09.425Z,0.97
2022-11-29T02:28:30.266Z,1.02
2022-11-29T02:32:59.146Z,0.99
2022-11-29T02:37:19.475Z,0.93
2022-11-29T02:41:40.252Z,1.07
2022-11-29T02:46:07.030Z,1.13
2022-11-29T02:50:57.870Z,1.02
2022-11-29T02:55:24.440Z,0.99
2022-11-29T02:59:57.157Z,1.03
2022-11-29T03:04:25.989Z,1.10
2022-11-29T03:08:48.629Z,1.01
2022-11-29T03:12:53.681Z,1.05
2022-11-29T03:17:12.817Z,1.14
2022-11-29T03:21:39.384Z,1.15
2022-11-29T03:25:58.236Z,0.94
2022-11-29T03:30:05.225Z,1.14
2022-11-29T03:34:44.490Z,1.14
2022-11-29T03:38:47.365Z,1.15
2022-11-29T03:42:58.104Z,1.15
2022-11-29T03:47:23.112Z,1.06
2022-11-29T03:51:47.006Z,1.03
2022-11-29T03:55:57.342Z,1.07
2022-11-29T04:00:09.906Z,1.16
2022-11-29T04:04:42.988Z,1.06
2022-11-29T04:08:56.078Z,1.20
2022-11-29T04:13:24.159Z,1.18
2022-11-29T04:17:46.038Z,1.08
2022-11-29T04:22:19.057Z,1.07
2022-11-29T04:26:40.655Z,0.99
2022-11-29T04:31:06.348Z,1.04
2022-11-29T04:35:33.857Z,1.08
2022-11-29T04:39:57.696Z,1.11
2022-11-29T04:44:10.847Z,0.96
2022-11-29T04:48:38.895Z,0.93
2022-11-29T04:53:04.540Z,0.99
2022-11-29T04:57:21.141Z,1.08
2022-11-29T05:01:48.018Z,1.09
2022-11-29T05:06:04.622Z,1.11
2022-11-29T05:10:39.928Z,1.00
2022-11-29T05:14:56.341Z,1.00
2022-11-29T05:19:19.521Z,0.99
2022-11-29T05:23:32.367Z,1.02
2022-11-29T05:27:45.892Z,0.98
2022-11-29T05:31:59.281Z,0.89
2022-11-29T05:36:21.858Z,0.95
2022-11-29T05:40:57.225Z,1.06
2022-11-29T05:45:07.893Z,1.00
2022-11-29T05:49:30.445Z,0.99
2022-11-29T05:53:41.592Z,1.03
2022-11-29T05:57:58.914Z,1.04
2022-11-29T06:02:21.072Z,1.02
2022-11-29T06:06:32.751Z,1.10
2022-11-29T06:10:40.065Z,1.07
2022-11-29T06:15:17.743Z,1.08
2022-11-29T06:20:04.305Z,1.12
2022-11-29T06:24:26.214Z,1.18
2022-11-29T06:28:51.147Z,1.20
2022-11-29T06:33:01.089Z,1.26
2022-11-29T06:37:12.938Z,1.15
2022-11-29T06:41:24.440Z,1.18
2022-11-29T06:45:26.557Z,1.15
2022-11-29T06:49:32.514Z,1.08
2022-11-29T06:53:47.489Z,1.18
2022-11-29T06:57:55.522Z,1.16
2022-11-29T07:02:04.736Z,1.06
2022-11-29T07:06:24.907Z,1.14
2022-11-29T07:10:27.646Z,1.19
2022-11-29T07:14:29.772Z,1.09
2022-11-29T07:18:47.231Z,1.29
2022-11-29T07:23:13.190Z,1.30
2022-11-29T07:27:21.673Z,1.37
2022-11-29T07:31:38.539Z,1.29
2022-11-29T07:36:09.504Z,1.24
2022-11-29T07:40:37.149Z,1.24
2022-11-29T07:44:48.682Z,1.36
2022-11-29T07:48:51.486Z,1.40
2022-11-29T07:52:54.521Z,1.25
2022-11-29T07:56:56.443Z,1.27
2022-11-29T08:00:58.213Z,1.31
2022-11-29T08:05:01.673Z,1.43
2022-11-29T08:09:04.673Z,1.45
2022-11-29T08:13:06.515Z,1.35
2022-11-29T08:17:08.145Z,1.41
2022-11-29T08:21:10.404Z,1.41
2022-11-29T08:25:12.497Z,1.52
2022-11-29T08:29:14.422Z,1.42
2022-11-29T08:33:17.279Z,1.48
2022-11-29T08:37:19.219Z,1.56
2022-11-29T08:41:20.862Z,1.59
2022-11-29T08:45:22.810Z,1.70
2022-11-29T08:49:24.559Z,1.77
2022-11-29T08:53:41.431Z,1.73
2022-11-29T08:57:43.479Z,1.95
2022-11-29T09:01:45.026Z,1.97
2022-11-29T09:05:47.119Z,1.89
2022-11-29T09:09:48.877Z,2.06
2022-11-29T09:13:54.395Z,2.09
2022-11-29T09:17:55.992Z,2.21
2022-11-29T09:21:58.044Z,2.32
2022-11-29T09:25:59.932Z,2.31
2022-11-29T09:30:01.616Z,2.44
2022-11-29T09:34:04.026Z,2.40
2022-11-29T09:38:05.851Z,2.18
2022-11-29T09:42:18.915Z,2.19
2022-11-29T09:46:23.557Z,2.28
2022-11-29T09:50:28.070Z,2.36
2022-11-29T09:54:44.355Z,2.45
2022-11-29T09:58:57.490Z,2.50
2022-11-29T10:03:20.329Z,2.47
2022-11-29T10:07:30.197Z,2.45
2022-11-29T10:11:59.938Z,2.44
2022-11-29T10:16:24.539Z,2.31
2022-11-29T10:20:32.614Z,2.43
2022-11-29T10:24:38.794Z,2.50
2022-11-29T10:28:47.450Z,2.51
2022-11-29T10:32:56.164Z,2.48
2022-11-29T10:37:02.325Z,2.39
2022-11-29T10:41:10.551Z,2.46
2022-11-29T10:45:17.894Z,2.43
2022-11-29T10:49:23.658Z,2.49
2022-11-29T10:53:36.582Z,2.47
2022-11-29T10:58:07.616Z,2.59
2022-11-29T11:02:20.115Z,2.62
2022-11-29T11:06:26.450Z,2.36
2022-11-29T11:10:30.757Z,2.40
2022-11-29T11:14:37.524Z,2.27
2022-11-29T11:18:39.459Z,2.34
2022-11-29T11:22:41.356Z,2.38
2022-11-29T11:26:45.348Z,2.22
2022-11-29T11:30:59.387Z,2.31
2022-11-29T11:35:02.534Z,2.28
2022-11-29T11:39:19.545Z,2.18
2022-11-29T11:43:21.939Z,2.28
2022-11-29T11:47:27.289Z,2.22
2022-11-29T11:51:29.044Z,2.27
2022-11-29T11:55:43.665Z,2.19
2022-11-29T11:59:54.442Z,2.09
2022-11-29T12:04:10.151Z,2.22
2022-11-29T12:08:14.010Z,2.14
2022-11-29T12:12:25.277Z,2.35
2022-11-29T12:16:33.088Z,2.34
2022-11-29T12:20:48.590Z,2.28
2022-11-29T12:24:57.885Z,2.21
2022-11-29T12:29:00.005Z,2.11
2022-11-29T12:33:34.368Z,2.17
2022-11-29T12:37:53.343Z,2.11
2022-11-29T12:42:04.295Z,2.06
2022-11-29T12:46:31.225Z,2.20
2022-11-29T12:50:45.252Z,2.18
2022-11-29T12:55:06.020Z,1.85
2022-11-29T12:59:26.135Z,1.98
2022-11-29T13:03:37.233Z,1.96
2022-11-29T13:08:01.387Z,2.07
2022-11-29T13:12:26.699Z,1.90
2022-11-29T13:16:31.344Z,1.91
2022-11-29T13:20:53.870Z,1.91
2022-11-29T13:25:12.716Z,1.94
2022-11-29T13:29:17.984Z,1.97
2022-11-29T13:33:54.374Z,2.06
2022-11-29T13:38:07.810Z,2.03
2022-11-29T13:42:28.996Z,1.91
2022-11-29T13:46:42.405Z,1.92
2022-11-29T13:50:45.201Z,1.90
2022-11-29T13:54:47.461Z,1.83
2022-11-29T13:58:53.802Z,1.70
2022-11-29T14:02:57.398Z,1.71
2022-11-29T14:07:06.102Z,1.66
2022-11-29T14:11:14.146Z,1.76
2022-11-29T14:15:42.875Z,1.73
2022-11-29T14:19:44.789Z,1.76
2022-11-29T14:23:46.797Z,1.71
2022-11-29T14:27:56.169Z,1.54
2022-11-29T14:31:59.792Z,1.57
2022-11-29T14:36:29.964Z,1.60
2022-11-29T14:40:41.318Z,1.52
2022-11-29T14:44:47.262Z,1.58
2022-11-29T14:48:55.239Z,1.52
2022-11-29T14:52:56.887Z,1.52
2022-11-29T14:57:38.152Z,1.57
2022-11-29T15:01:45.414Z,1.44
2022-11-29T15:06:06.163Z,1.42
2022-11-29T15:10:17.836Z,1.51
2022-11-29T15:14:50.552Z,1.53
2022-11-29T15:19:22.951Z,1.45
2022-11-29T15:23:24.701Z,1.40
2022-11-29T15:27:27.087Z,1.42
2022-11-29T15:31:28.891Z,1.52
2022-11-29T15:35:32.900Z,1.57
2022-11-29T15:39:37.809Z,1.54
2022-11-29T15:43:40.847Z,1.47
2022-11-29T15:47:42.527Z,1.44
2022-11-29T15:51:49.578Z,1.51
2022-11-29T15:55:53.947Z,1.42
2022-11-29T15:59:59.131Z,1.45
2022-11-29T16:04:01.493Z,1.54
2022-11-29T16:08:07.958Z,1.47
2022-11-29T16:12:14.153Z,1.40
2022-11-29T16:16:23.698Z,1.50
2022-11-29T16:20:26.099Z,1.47
2022-11-29T16:24:28.267Z,1.49
2022-11-29T16:28:37.357Z,1.49
2022-11-29T16:32:43.183Z,1.58
2022-11-29T16:36:44.919Z,1.63
2022-11-29T16:41:08.616Z,1.65
2022-11-29T16:45:33.644Z,1.57
2022-11-29T16:49:36.420Z,1.63
2022-11-29T16:53:42.333Z,1.66
2022-11-29T16:57:45.827Z,1.64
2022-11-29T17:01:47.893Z,1.46
2022-11-29T17:05:50.195Z,1.53
2022-11-29T17:09:52.884Z,1.56
2022-11-29T17:13:54.513Z,1.50
2022-11-29T17:17:56.522Z,1.50
2022-11-29T17:21:58.623Z,1.51
2022-11-29T17:26:02.433Z,1.43
2022-11-29T17:30:06.586Z,1.48
2022-11-29T17:34:08.913Z,1.38
2022-11-29T17:38:10.520Z,1.47
2022-11-29T17:42:12.601Z,1.39
2022-11-29T17:46:16.826Z,1.56
2022-11-29T17:50:19.076Z,1.55
2022-11-29T17:54:23.947Z,1.47
2022-11-29T17:58:26.344Z,1.54
2022-11-29T18:02:27.996Z,1.46
2022-11-29T18:06:34.853Z,1.52
2022-11-29T18:10:36.545Z,1.47
2022-11-29T18:14:39.059Z,1.51
2022-11-29T18:18:41.085Z,1.51
2022-11-29T18:22:43.177Z,1.45
2022-11-29T18:26:45.264Z,1.28
2022-11-29T18:30:47.596Z,1.37
2022-11-29T18:34:49.404Z,1.48
2022-11-29T18:38:59.846Z,1.48
2022-11-29T18:43:01.502Z,1.34
2022-11-29T18:47:03.931Z,1.36
2022-11-29T18:51:07.961Z,1.42
2022-11-29T18:55:10.031Z,1.59
2022-11-29T18:59:17.198Z,1.55
2022-11-29T19:03:19.530Z,1.37
2022-11-29T19:07:21.272Z,1.41
2022-11-29T19:11:25.140Z,1.43
2022-11-29T19:15:26.767Z,1.41
2022-11-29T19:19:28.754Z,1.44
2022-11-29T19:23:30.710Z,1.35
2022-11-29T19:27:32.400Z,1.35
2022-11-29T19:31:34.444Z,1.32
2022-11-29T19:35:36.111Z,1.34
2022-11-29T19:39:38.876Z,1.37
2022-11-29T19:43:41.062Z,1.36
2022-11-29T19:47:42.911Z,1.33
2022-11-29T19:51:44.951Z,1.31
2022-11-29T19:55:46.650Z,1.32
2022-11-29T19:59:48.616Z,1.39
2022-11-29T20:03:51.089Z,1.36
2022-11-29T20:07:53.243Z,1.39
2022-11-29T20:11:54.854Z,1.42
2022-11-29T20:16:02.326Z,1.40
2022-11-29T20:20:04.608Z,1.40
2022-11-29T20:24:07.845Z,1.45
2022-11-29T20:28:09.540Z,1.30
2022-11-29T20:32:11.823Z,1.33
2022-11-29T20:36:37.623Z,1.40
2022-11-29T20:41:02.972Z,1.48
2022-11-29T20:45:08.353Z,1.37
2022-11-29T20:49:14.129Z,1.43
2022-11-29T20:53:35.012Z,1.41
2022-11-29T20:57:38.501Z,1.33
2022-11-29T21:01:40.500Z,1.23
2022-11-29T21:05:42.643Z,1.27
2022-11-29T21:09:45.092Z,1.31
2022-11-29T21:13:47.650Z,1.24
2022-11-29T21:17:50.033Z,1.23
2022-11-29T21:22:19.909Z,1.19
2022-11-29T21:26:35.989Z,1.15
2022-11-29T21:30:43.434Z,1.08
2022-11-29T21:34:45.741Z,1.17
2022-11-29T21:38:53.883Z,1.14
2022-11-29T21:42:56.934Z,1.15
2022-11-29T21:46:58.694Z,1.16
2022-11-29T21:51:05.447Z,1.13
2022-11-29T21:55:07.500Z,1.17
2022-11-29T21:59:09.551Z,1.18
2022-11-29T22:03:11.251Z,1.22
2022-11-29T22:07:13.215Z,1.25
2022-11-29T22:11:30.763Z,1.24
2022-11-29T22:15:33.009Z,1.24
2022-11-29T22:19:39.450Z,1.12
2022-11-29T22:23:41.125Z,1.12
2022-11-29T22:27:43.079Z,1.11
2022-11-29T22:31:47.025Z,0.99
2022-11-29T22:35:48.867Z,1.16
2022-11-29T22:39:50.747Z,1.21
2022-11-29T22:43:52.945Z,1.17
2022-11-29T22:47:54.584Z,1.17
2022-11-29T22:51:56.515Z,1.20
2022-11-29T22:56:00.014Z,1.18
2022-11-29T23:00:02.040Z,1.27
2022-11-29T23:04:07.101Z,1.13
2022-11-29T23:08:08.932Z,1.18
2022-11-29T23:12:10.961Z,1.23
2022-11-29T23:16:16.058Z,1.22
2022-11-29T23:20:17.930Z,1.21
2022-11-29T23:24:20.007Z,1.25
2022-11-29T23:28:21.959Z,1.30
2022-11-29T23:32:24.060Z,1.31
2022-11-29T23:36:26.009Z,1.30
2022-11-29T23:40:27.655Z,1.29
2022-11-29T23:44:29.618Z,1.36
2022-11-29T23:48:31.288Z,1.33
2022-11-29T23:52:33.168Z,1.28
2022-11-29T23:56:35.490Z,1.37
